Time;durP1;ratioP1;P1;durP2;ratioP2;P2;SDS_P1;SDS_P2;PMS_P1;PMS_P2;Temp;Humidity;BMP_temperature;BMP_pressure;BME280_temperature;BME280_humidity;BME280_pressure;Samples;Min_cycle;Max_cycle;Signal;HPM_P1;HPM_P2
2023/10/28 00:00:45;;;;;;;23.30;13.15;;;10.30;99.90;;;;;;4954649;28;20497;-72
2023/10/28 00:03:11;;;;;;;22.00;12.25;;;10.20;99.90;;;;;;4962523;28;20085;-70
2023/10/28 00:05:37;;;;;;;23.75;12.82;;;10.20;99.90;;;;;;4963663;28;20402;-69
2023/10/28 00:08:03;;;;;;;25.25;14.65;;;10.20;99.90;;;;;;4963336;28;20046;-73
2023/10/28 00:10:33;;;;;;;26.83;14.80;;;10.20;99.90;;;;;;4965646;28;20136;-73
2023/10/28 00:12:59;;;;;;;28.60;15.45;;;10.30;99.90;;;;;;4954441;28;20094;-72
2023/10/28 00:15:25;;;;;;;26.25;14.80;;;10.30;99.90;;;;;;4962334;28;20130;-70
2023/10/28 00:17:51;;;;;;;30.17;15.98;;;10.20;99.90;;;;;;4967457;28;20051;-73
2023/10/28 00:20:18;;;;;;;33.13;15.85;;;10.20;99.90;;;;;;4962009;28;20581;-71
2023/10/28 00:22:45;;;;;;;30.05;16.27;;;10.20;99.90;;;;;;4961739;28;20123;-73
2023/10/28 00:25:11;;;;;;;33.83;17.23;;;10.20;99.90;;;;;;4966627;28;20892;-73
2023/10/28 00:27:37;;;;;;;31.77;16.70;;;10.20;99.90;;;;;;4962122;28;20483;-72
2023/10/28 00:30:03;;;;;;;31.02;17.48;;;10.10;99.90;;;;;;4963645;28;20118;-70
2023/10/28 00:32:29;;;;;;;34.53;18.70;;;10.20;99.90;;;;;;4947663;28;20105;-73
2023/10/28 00:34:59;;;;;;;40.28;19.90;;;10.20;99.90;;;;;;4957278;28;20051;-74
2023/10/28 00:37:25;;;;;;;39.17;20.92;;;10.50;99.90;;;;;;4928566;29;20410;-73
2023/10/28 00:39:51;;;;;;;47.22;21.23;;;10.20;99.90;;;;;;4962182;28;20039;-71
2023/10/28 00:42:17;;;;;;;40.95;21.60;;;10.20;99.90;;;;;;4963780;28;20050;-70
2023/10/28 00:44:43;;;;;;;44.95;21.73;;;10.20;99.90;;;;;;4964222;28;20094;-70
2023/10/28 00:47:09;;;;;;;39.65;20.83;;;10.30;99.90;;;;;;4961687;28;20051;-70
2023/10/28 00:49:36;;;;;;;45.40;22.73;;;10.30;99.90;;;;;;4964839;28;20043;-70
2023/10/28 00:52:02;;;;;;;45.08;22.42;;;10.20;99.90;;;;;;4964637;28;20047;-69
2023/10/28 00:54:28;;;;;;;42.75;23.23;;;10.30;99.90;;;;;;4963159;28;20096;-71
2023/10/28 00:56:54;;;;;;;45.97;25.13;;;10.20;99.90;;;;;;4958837;28;20045;-69
2023/10/28 00:59:20;;;;;;;46.85;24.45;;;10.30;99.90;;;;;;4964496;28;20125;-70
2023/10/28 01:01:46;;;;;;;49.63;25.77;;;10.20;99.90;;;;;;4961571;28;20080;-74
2023/10/28 01:04:12;;;;;;;51.00;26.65;;;10.50;99.90;;;;;;4961683;28;20454;-72
2023/10/28 01:06:41;;;;;;;43.15;25.65;;;10.50;99.90;;;;;;4962527;28;20039;-72
2023/10/28 01:09:07;;;;;;;52.78;27.58;;;10.30;99.90;;;;;;4946816;28;20504;-73
2023/10/28 01:11:39;;;;;;;49.75;26.63;;;10.20;99.90;;;;;;4964259;28;20166;-71
2023/10/28 01:14:07;;;;;;;49.30;26.67;;;10.30;99.90;;;;;;4961297;28;20058;-72
2023/10/28 01:16:34;;;;;;;48.05;27.13;;;10.20;99.90;;;;;;4961447;28;20130;-70
2023/10/28 01:19:00;;;;;;;49.50;27.70;;;10.30;99.90;;;;;;4961329;28;20453;-71
2023/10/28 01:21:26;;;;;;;47.67;26.35;;;10.20;99.90;;;;;;4961274;28;20130;-71
2023/10/28 01:23:54;;;;;;;47.40;26.75;;;10.30;99.90;;;;;;4962398;28;20093;-71
2023/10/28 01:26:20;;;;;;;56.42;26.70;;;10.20;99.90;;;;;;4963399;28;20189;-70
2023/10/28 01:28:46;;;;;;;44.95;25.52;;;10.30;99.90;;;;;;4943883;29;20047;-73
2023/10/28 01:31:12;;;;;;;51.50;26.77;;;10.20;99.90;;;;;;4964046;28;20112;-73
2023/10/28 01:33:38;;;;;;;49.33;26.80;;;10.20;99.90;;;;;;4946444;28;20050;-74
2023/10/28 01:36:04;;;;;;;47.30;26.50;;;10.20;99.90;;;;;;4955519;28;20399;-73
2023/10/28 01:38:30;;;;;;;49.75;26.23;;;10.20;99.90;;;;;;4964098;28;20097;-72
2023/10/28 01:40:57;;;;;;;51.30;26.95;;;10.20;99.90;;;;;;4964009;28;20482;-73
2023/10/28 01:43:22;;;;;;;53.53;27.10;;;10.20;99.90;;;;;;4961242;28;20054;-71
2023/10/28 01:45:48;;;;;;;51.03;25.95;;;10.20;99.90;;;;;;4960467;28;20066;-72
2023/10/28 01:48:14;;;;;;;53.75;28.23;;;10.20;99.90;;;;;;4944035;28;20058;-71
2023/10/28 01:50:41;;;;;;;52.38;26.90;;;10.10;99.90;;;;;;4963753;28;20120;-71
2023/10/28 01:53:07;;;;;;;53.30;26.55;;;10.10;99.90;;;;;;4963597;28;20133;-70
2023/10/28 01:55:32;;;;;;;52.85;27.08;;;10.20;99.90;;;;;;4943334;28;20074;-72
2023/10/28 01:57:58;;;;;;;52.10;27.17;;;10.10;99.90;;;;;;4958465;28;20129;-73
2023/10/28 02:00:30;;;;;;;43.67;25.08;;;10.20;99.90;;;;;;4962543;28;20038;-70
2023/10/28 02:02:56;;;;;;;46.50;24.98;;;10.10;99.90;;;;;;4960715;28;20053;-70
2023/10/28 02:05:22;;;;;;;45.92;25.63;;;10.10;99.90;;;;;;4960522;28;20090;-72
2023/10/28 02:07:47;;;;;;;46.35;25.73;;;10.10;99.90;;;;;;4963366;28;20078;-71
2023/10/28 02:10:13;;;;;;;45.30;25.75;;;10.10;99.90;;;;;;4963246;28;20054;-72
2023/10/28 02:12:39;;;;;;;50.17;27.05;;;10.00;99.90;;;;;;4962356;28;20045;-71
2023/10/28 02:15:07;;;;;;;53.75;25.33;;;10.10;99.90;;;;;;4960397;28;20043;-73
2023/10/28 02:17:35;;;;;;;45.08;24.98;;;10.00;99.90;;;;;;4942566;29;20039;-69
2023/10/28 02:20:04;;;;;;;56.08;26.05;;;10.00;99.90;;;;;;4959758;28;20495;-73
2023/10/28 02:22:31;;;;;;;47.15;26.10;;;10.00;99.90;;;;;;4960037;28;20122;-72
2023/10/28 02:24:57;;;;;;;45.63;24.13;;;9.90;99.90;;;;;;4944044;28;20051;-72
2023/10/28 02:27:23;;;;;;;44.08;23.98;;;9.90;99.90;;;;;;4963109;28;20047;-70
2023/10/28 02:29:49;;;;;;;45.65;22.58;;;10.00;99.90;;;;;;4962460;28;20039;-72
2023/10/28 02:32:15;;;;;;;50.85;24.17;;;9.90;99.90;;;;;;4942615;29;20047;-73
2023/10/28 02:34:43;;;;;;;42.55;24.63;;;10.00;99.90;;;;;;4959949;28;20050;-73
2023/10/28 02:37:11;;;;;;;47.13;23.38;;;9.80;99.90;;;;;;4961632;28;20090;-71
2023/10/28 02:39:37;;;;;;;47.25;23.08;;;10.00;99.90;;;;;;4958579;28;20093;-70
2023/10/28 02:42:03;;;;;;;40.70;22.60;;;9.80;99.90;;;;;;4942448;28;20051;-71
2023/10/28 02:44:32;;;;;;;44.40;22.63;;;9.80;99.90;;;;;;4963095;28;20085;-70
2023/10/28 02:46:58;;;;;;;47.15;23.88;;;9.70;99.90;;;;;;4962956;28;20053;-70
2023/10/28 02:49:24;;;;;;;44.85;23.52;;;9.70;99.90;;;;;;4960622;28;20043;-70
2023/10/28 02:51:49;;;;;;;44.63;22.17;;;9.70;99.90;;;;;;4959304;28;20451;-71
2023/10/28 02:54:15;;;;;;;44.15;22.48;;;9.70;99.90;;;;;;4960232;28;20062;-70
2023/10/28 02:56:41;;;;;;;40.90;21.85;;;9.70;99.90;;;;;;4962750;28;20042;-73
2023/10/28 02:59:07;;;;;;;42.33;22.27;;;9.90;99.90;;;;;;4962819;28;20039;-73
2023/10/28 03:01:36;;;;;;;42.28;21.98;;;9.60;99.90;;;;;;4953837;28;20446;-72
2023/10/28 03:04:03;;;;;;;41.75;21.45;;;9.60;99.90;;;;;;4963095;28;20105;-70
2023/10/28 03:06:29;;;;;;;43.97;22.80;;;9.60;99.90;;;;;;4961776;28;20066;-72
2023/10/28 03:08:54;;;;;;;36.28;20.38;;;9.50;99.90;;;;;;4959860;28;20039;-73
2023/10/28 03:11:20;;;;;;;37.53;20.83;;;9.50;99.90;;;;;;4961460;28;20115;-73
2023/10/28 03:13:46;;;;;;;37.00;20.80;;;9.50;99.90;;;;;;4967236;28;20126;-74
2023/10/28 03:16:12;;;;;;;31.95;19.40;;;9.50;99.90;;;;;;4966658;28;20398;-74
2023/10/28 03:18:38;;;;;;;37.75;20.05;;;9.60;99.90;;;;;;4964304;28;20042;-69
2023/10/28 03:21:04;;;;;;;33.83;19.50;;;9.50;99.90;;;;;;4965787;28;20072;-73
2023/10/28 03:23:30;;;;;;;39.45;19.55;;;9.40;99.90;;;;;;4965695;28;20091;-70
2023/10/28 03:25:56;;;;;;;43.80;21.13;;;9.50;99.90;;;;;;4964253;28;20082;-70
2023/10/28 03:28:21;;;;;;;37.75;19.33;;;9.60;99.90;;;;;;4962789;28;20051;-73
2023/10/28 03:30:47;;;;;;;36.28;19.30;;;9.50;99.90;;;;;;4963192;28;20043;-73
2023/10/28 03:33:13;;;;;;;31.85;18.50;;;9.40;99.90;;;;;;4951181;28;20056;-70
2023/10/28 03:35:38;;;;;;;34.03;18.15;;;9.40;99.90;;;;;;4966162;28;20041;-71
2023/10/28 03:38:04;;;;;;;35.10;18.88;;;9.50;99.90;;;;;;4964716;28;20074;-70
2023/10/28 03:40:30;;;;;;;37.45;18.88;;;9.40;99.90;;;;;;4962984;28;20055;-71
2023/10/28 03:42:55;;;;;;;32.45;17.65;;;9.40;99.90;;;;;;4962216;28;20047;-72
2023/10/28 03:45:21;;;;;;;36.58;18.33;;;9.40;99.90;;;;;;4965251;28;20043;-72
2023/10/28 03:47:46;;;;;;;32.42;17.52;;;9.40;99.90;;;;;;4948658;28;20160;-72
2023/10/28 03:50:12;;;;;;;35.58;17.10;;;9.50;99.90;;;;;;4965107;28;20055;-72
2023/10/28 03:52:37;;;;;;;34.17;18.05;;;9.60;99.90;;;;;;4960107;28;20046;-73
2023/10/28 03:55:03;;;;;;;39.47;18.70;;;9.30;99.90;;;;;;4969810;28;20051;-72
2023/10/28 03:57:29;;;;;;;32.38;18.15;;;9.40;99.90;;;;;;4963488;28;20054;-73
2023/10/28 03:59:55;;;;;;;31.67;17.67;;;9.30;99.90;;;;;;4963439;28;20734;-72
2023/10/28 04:02:20;;;;;;;35.42;18.02;;;9.30;99.90;;;;;;4964530;28;20509;-69
2023/10/28 04:04:46;;;;;;;31.05;18.10;;;9.30;99.90;;;;;;4961954;28;20039;-71
2023/10/28 04:07:12;;;;;;;31.67;16.88;;;9.40;99.90;;;;;;4961169;28;20046;-70
2023/10/28 04:09:37;;;;;;;31.33;16.67;;;9.30;99.90;;;;;;4962899;28;20139;-70
2023/10/28 04:12:05;;;;;;;38.08;18.50;;;9.30;99.90;;;;;;4963109;28;20395;-70
2023/10/28 04:14:34;;;;;;;34.45;18.75;;;9.30;99.90;;;;;;4961943;28;20047;-71
2023/10/28 04:17:01;;;;;;;36.13;18.67;;;9.20;99.90;;;;;;4963244;28;20513;-71
2023/10/28 04:19:27;;;;;;;30.30;17.92;;;9.20;99.90;;;;;;4958178;28;20078;-69
2023/10/28 04:21:54;;;;;;;32.63;17.15;;;9.20;99.90;;;;;;4964625;28;20074;-72
2023/10/28 04:24:20;;;;;;;30.05;17.85;;;9.30;99.90;;;;;;4965108;28;20090;-73
2023/10/28 04:26:45;;;;;;;31.65;17.80;;;9.50;99.90;;;;;;4962237;28;20162;-72
2023/10/28 04:29:11;;;;;;;34.38;18.75;;;9.50;99.90;;;;;;4961922;28;20082;-72
2023/10/28 04:31:37;;;;;;;32.75;18.55;;;9.20;99.90;;;;;;4962966;28;20138;-72
2023/10/28 04:34:03;;;;;;;30.38;18.50;;;9.20;99.90;;;;;;4964105;28;20114;-73
2023/10/28 04:36:29;;;;;;;32.00;18.95;;;9.20;99.90;;;;;;4961922;28;20101;-70
2023/10/28 04:38:54;;;;;;;36.28;17.98;;;9.20;99.90;;;;;;4964428;28;20126;-73
2023/10/28 04:41:20;;;;;;;35.92;19.27;;;9.20;99.90;;;;;;4965049;28;20050;-73
2023/10/28 04:43:46;;;;;;;30.35;18.80;;;9.30;99.90;;;;;;4957177;28;20142;-69
2023/10/28 04:46:11;;;;;;;37.72;19.83;;;9.30;99.90;;;;;;4964867;28;20129;-71
2023/10/28 04:48:38;;;;;;;32.78;18.98;;;9.30;99.90;;;;;;4964627;28;20079;-69
2023/10/28 04:51:05;;;;;;;33.17;17.98;;;9.30;99.90;;;;;;4962407;28;20073;-70
2023/10/28 04:53:31;;;;;;;44.90;21.38;;;9.30;99.90;;;;;;4961293;28;20039;-72
2023/10/28 04:55:57;;;;;;;45.65;20.50;;;9.30;99.90;;;;;;4962194;28;20134;-71
2023/10/28 04:58:24;;;;;;;42.88;20.70;;;9.30;99.90;;;;;;4964663;28;20125;-71
2023/10/28 05:00:50;;;;;;;41.92;19.23;;;9.20;99.90;;;;;;4946854;28;20051;-70
2023/10/28 05:03:15;;;;;;;34.20;19.38;;;9.30;99.90;;;;;;4962693;28;20059;-73
2023/10/28 05:05:41;;;;;;;44.22;18.33;;;9.30;99.90;;;;;;4961419;28;20050;-71
2023/10/28 05:08:07;;;;;;;35.90;19.15;;;9.30;99.90;;;;;;4961582;28;20089;-68
2023/10/28 05:10:33;;;;;;;48.45;19.35;;;9.30;99.90;;;;;;4962508;28;20398;-70
2023/10/28 05:12:59;;;;;;;35.05;19.55;;;9.40;99.90;;;;;;4943764;29;20126;-72
2023/10/28 05:15:25;;;;;;;33.80;19.02;;;9.70;99.90;;;;;;4962435;28;20134;-71
2023/10/28 05:17:50;;;;;;;37.55;19.10;;;9.30;99.90;;;;;;4964450;28;20126;-71
2023/10/28 05:20:16;;;;;;;36.40;18.35;;;9.40;99.90;;;;;;4963958;28;20101;-71
2023/10/28 05:22:42;;;;;;;34.35;18.42;;;9.40;99.90;;;;;;4961010;28;20058;-74
2023/10/28 05:25:09;;;;;;;41.97;21.17;;;9.40;99.90;;;;;;4943521;29;20054;-70
2023/10/28 05:27:35;;;;;;;42.03;20.45;;;9.40;99.90;;;;;;4962494;28;20050;-67
2023/10/28 05:30:01;;;;;;;33.70;17.85;;;9.40;99.90;;;;;;4963970;28;20043;-72
2023/10/28 05:32:27;;;;;;;34.33;18.90;;;9.50;99.90;;;;;;4963654;28;20153;-73
2023/10/28 05:34:53;;;;;;;39.55;20.55;;;9.40;99.90;;;;;;4960798;28;20122;-69
2023/10/28 05:37:18;;;;;;;48.55;20.02;;;9.50;99.90;;;;;;4958599;28;20049;-73
2023/10/28 05:39:44;;;;;;;41.17;20.67;;;9.50;99.90;;;;;;4962630;28;20043;-71
2023/10/28 05:42:14;;;;;;;41.45;20.35;;;9.70;99.90;;;;;;4960573;28;20051;-73
2023/10/28 05:44:40;;;;;;;42.05;20.15;;;9.40;99.90;;;;;;4964431;28;20070;-69
2023/10/28 05:47:07;;;;;;;50.15;20.77;;;9.50;99.90;;;;;;4940389;28;20050;-73
2023/10/28 05:49:33;;;;;;;43.72;20.70;;;9.50;99.90;;;;;;4963872;28;20030;-73
2023/10/28 05:51:59;;;;;;;50.15;21.00;;;9.50;99.90;;;;;;4962057;28;20055;-70
2023/10/28 05:54:25;;;;;;;42.05;21.35;;;9.50;99.90;;;;;;4960216;28;20079;-69
2023/10/28 05:56:50;;;;;;;46.33;20.92;;;9.50;99.90;;;;;;4944583;28;20089;-74
2023/10/28 05:59:16;;;;;;;39.67;19.90;;;9.50;99.90;;;;;;4963326;28;20074;-74
2023/10/28 06:01:42;;;;;;;36.03;20.30;;;9.60;99.90;;;;;;4969399;28;20086;-70
2023/10/28 06:04:09;;;;;;;40.53;19.67;;;9.60;99.90;;;;;;4945164;28;20050;-71
2023/10/28 06:06:35;;;;;;;44.20;20.83;;;9.60;99.90;;;;;;4960563;28;20051;-70
2023/10/28 06:09:01;;;;;;;34.53;19.25;;;9.60;99.90;;;;;;4960612;28;20112;-71
2023/10/28 06:11:27;;;;;;;37.70;19.67;;;9.60;99.90;;;;;;4960634;28;20097;-73
2023/10/28 06:13:53;;;;;;;29.40;19.10;;;9.70;99.90;;;;;;4960516;28;20047;-72
2023/10/28 06:16:19;;;;;;;41.13;19.88;;;9.70;99.90;;;;;;4943836;28;20371;-73
2023/10/28 06:18:45;;;;;;;43.85;20.77;;;9.60;99.90;;;;;;4963096;28;20070;-70
2023/10/28 06:21:11;;;;;;;38.70;18.40;;;9.70;99.90;;;;;;4963076;28;20063;-70
2023/10/28 06:23:40;;;;;;;33.28;18.48;;;9.70;99.90;;;;;;4960607;28;20046;-71
2023/10/28 06:26:10;;;;;;;41.63;18.48;;;9.70;99.90;;;;;;4959922;28;20122;-73
2023/10/28 06:28:37;;;;;;;40.58;19.15;;;9.60;99.90;;;;;;4960910;28;20062;-72
2023/10/28 06:31:03;;;;;;;35.45;18.75;;;9.80;99.90;;;;;;4962908;28;20518;-69
2023/10/28 06:33:28;;;;;;;42.20;19.67;;;9.80;99.90;;;;;;4942596;29;20134;-71
2023/10/28 06:35:54;;;;;;;36.92;17.73;;;9.90;99.90;;;;;;4962697;28;20150;-71
2023/10/28 06:38:20;;;;;;;32.88;17.55;;;9.80;99.90;;;;;;4962913;28;20058;-74
2023/10/28 06:40:47;;;;;;;28.20;16.55;;;9.70;99.90;;;;;;4943710;28;20121;-71
2023/10/28 06:43:14;;;;;;;28.38;17.73;;;9.80;99.90;;;;;;4960122;28;20384;-70
2023/10/28 06:45:41;;;;;;;35.88;16.33;;;9.80;99.90;;;;;;4959684;28;20055;-71
2023/10/28 06:48:07;;;;;;;31.35;15.68;;;10.00;99.90;;;;;;4951536;28;20043;-72
2023/10/28 06:50:32;;;;;;;28.95;15.32;;;10.10;99.90;;;;;;4959274;28;20126;-72
2023/10/28 06:52:59;;;;;;;32.47;14.50;;;9.80;99.90;;;;;;4960614;28;20119;-72
2023/10/28 06:55:26;;;;;;;28.58;13.80;;;9.90;99.90;;;;;;4962667;28;20121;-72
2023/10/28 06:57:52;;;;;;;24.52;13.73;;;9.80;99.90;;;;;;4962862;28;20050;-71
2023/10/28 07:00:20;;;;;;;24.42;12.50;;;10.00;99.90;;;;;;4959547;28;20106;-69
2023/10/28 07:02:46;;;;;;;27.67;12.90;;;9.90;99.90;;;;;;4958372;28;20840;-72
2023/10/28 07:05:14;;;;;;;23.85;12.60;;;9.90;99.90;;;;;;4961160;28;20074;-72
2023/10/28 07:07:40;;;;;;;23.90;11.07;;;10.00;99.90;;;;;;4945582;28;20050;-71
2023/10/28 07:10:06;;;;;;;23.33;11.90;;;10.00;99.90;;;;;;4962492;28;20154;-73
2023/10/28 07:12:32;;;;;;;25.25;11.38;;;9.90;99.90;;;;;;4954758;28;20042;-72
2023/10/28 07:14:58;;;;;;;16.15;10.35;;;9.90;99.90;;;;;;4945609;28;20104;-70
2023/10/28 07:17:24;;;;;;;22.65;11.20;;;9.90;99.90;;;;;;4961121;28;20483;-69
2023/10/28 07:19:52;;;;;;;23.45;11.02;;;10.00;99.90;;;;;;4958074;28;20394;-72
2023/10/28 07:22:20;;;;;;;17.63;10.50;;;10.00;99.90;;;;;;4956592;28;20410;-71
2023/10/28 07:24:46;;;;;;;22.35;11.65;;;10.00;99.90;;;;;;4951988;28;20059;-71
2023/10/28 07:27:12;;;;;;;18.35;10.18;;;10.00;99.90;;;;;;4959609;28;20051;-73
2023/10/28 07:29:38;;;;;;;24.00;11.25;;;10.10;99.90;;;;;;4960856;28;20114;-71
2023/10/28 07:32:05;;;;;;;21.63;11.07;;;10.00;99.90;;;;;;4962255;28;20038;-73
2023/10/28 07:34:31;;;;;;;20.75;10.30;;;10.10;99.90;;;;;;4961866;28;20082;-72
2023/10/28 07:37:00;;;;;;;14.15;9.05;;;10.10;99.90;;;;;;4942243;29;20075;-72
2023/10/28 07:39:26;;;;;;;19.42;9.20;;;10.10;99.90;;;;;;4959267;28;20043;-72
2023/10/28 07:41:53;;;;;;;20.77;9.65;;;10.20;99.90;;;;;;4960598;28;20054;-72
2023/10/28 07:44:19;;;;;;;17.58;9.38;;;10.20;99.90;;;;;;4959344;28;20114;-70
2023/10/28 07:46:46;;;;;;;22.33;9.65;;;10.20;99.90;;;;;;4959425;28;20138;-70
2023/10/28 07:49:12;;;;;;;17.02;8.63;;;10.30;99.90;;;;;;4966019;28;20059;-73
2023/10/28 07:51:38;;;;;;;18.02;9.93;;;10.30;99.90;;;;;;4942262;29;20078;-69
2023/10/28 07:54:04;;;;;;;14.88;8.40;;;10.50;99.90;;;;;;4943802;28;20485;-72
2023/10/28 07:56:30;;;;;;;14.35;8.05;;;10.30;99.90;;;;;;4960105;28;20050;-70
2023/10/28 07:58:59;;;;;;;14.60;8.52;;;10.40;99.90;;;;;;4962695;28;20050;-70
2023/10/28 08:01:27;;;;;;;15.40;8.35;;;10.30;99.90;;;;;;4965639;28;20086;-68
2023/10/28 08:03:53;;;;;;;18.85;8.48;;;10.40;99.90;;;;;;4962617;28;20118;-70
2023/10/28 08:06:19;;;;;;;20.67;8.10;;;10.40;99.90;;;;;;4965734;28;20122;-72
2023/10/28 08:08:48;;;;;;;13.20;8.15;;;10.40;99.90;;;;;;4965608;28;20122;-69
2023/10/28 08:11:16;;;;;;;17.73;8.70;;;10.40;99.90;;;;;;4947700;28;20089;-72
2023/10/28 08:13:42;;;;;;;14.00;8.32;;;10.60;99.90;;;;;;4945597;29;20078;-71
2023/10/28 08:16:12;;;;;;;16.13;8.25;;;10.50;99.90;;;;;;4962279;28;20058;-70
2023/10/28 08:18:38;;;;;;;17.30;8.00;;;10.50;99.90;;;;;;4948338;28;20046;-69
2023/10/28 08:21:04;;;;;;;13.52;8.25;;;10.60;99.90;;;;;;4962502;28;20495;-72
2023/10/28 08:23:29;;;;;;;14.32;8.23;;;10.50;99.90;;;;;;4963528;28;20058;-73
2023/10/28 08:25:58;;;;;;;17.50;8.18;;;10.50;99.90;;;;;;4965264;28;20098;-69
2023/10/28 08:28:26;;;;;;;13.98;7.80;;;10.60;99.90;;;;;;4965041;28;20061;-70
2023/10/28 08:30:52;;;;;;;14.82;8.30;;;10.50;99.90;;;;;;4954354;28;20086;-71
2023/10/28 08:33:20;;;;;;;13.90;7.30;;;10.50;99.90;;;;;;4962327;28;20075;-74
2023/10/28 08:35:47;;;;;;;10.07;7.50;;;10.50;99.90;;;;;;4963832;28;20126;-72
2023/10/28 08:38:15;;;;;;;16.25;6.85;;;10.50;99.90;;;;;;4944885;29;20142;-70
2023/10/28 08:40:45;;;;;;;12.50;6.85;;;10.50;99.90;;;;;;4970310;28;20046;-72
2023/10/28 08:43:10;;;;;;;14.80;7.00;;;10.50;99.90;;;;;;4961483;28;20494;-74
2023/10/28 08:45:39;;;;;;;13.07;7.32;;;10.50;99.90;;;;;;4965951;28;20062;-68
2023/10/28 08:48:05;;;;;;;10.48;6.65;;;10.60;99.90;;;;;;4959418;28;20142;-70
2023/10/28 08:50:34;;;;;;;13.25;6.10;;;10.60;99.90;;;;;;4946086;28;20141;-72
2023/10/28 08:53:03;;;;;;;13.02;7.47;;;10.60;99.90;;;;;;4963122;28;20170;-69
2023/10/28 08:55:30;;;;;;;15.20;7.80;;;10.60;99.90;;;;;;4964994;28;20506;-73
2023/10/28 08:57:57;;;;;;;14.30;6.88;;;10.60;99.90;;;;;;4962426;28;20126;-73
2023/10/28 09:00:25;;;;;;;10.50;7.00;;;10.60;99.90;;;;;;4964796;28;20051;-68
2023/10/28 09:02:55;;;;;;;13.20;6.13;;;10.60;99.90;;;;;;4963325;28;20051;-73
2023/10/28 09:05:21;;;;;;;16.50;7.05;;;10.70;99.90;;;;;;4966221;28;20046;-71
2023/10/28 09:07:47;;;;;;;11.32;6.72;;;10.70;99.90;;;;;;4962976;28;20092;-69
2023/10/28 09:10:14;;;;;;;14.15;6.72;;;10.70;99.90;;;;;;4956238;28;20047;-70
2023/10/28 09:12:40;;;;;;;10.52;5.93;;;10.70;99.90;;;;;;4964380;28;20039;-72
2023/10/28 09:15:11;;;;;;;10.90;5.90;;;10.70;99.90;;;;;;4961481;28;20121;-69
2023/10/28 09:17:39;;;;;;;11.60;5.90;;;10.80;99.90;;;;;;4953974;28;20043;-69
2023/10/28 09:20:12;;;;;;;13.35;6.53;;;10.70;99.90;;;;;;4945380;28;20058;-68
2023/10/28 09:22:46;;;;;;;13.73;6.18;;;10.80;99.90;;;;;;4960346;28;20720;-70
2023/10/28 09:25:15;;;;;;;13.18;5.93;;;10.80;99.90;;;;;;4960964;28;20082;-71
2023/10/28 09:27:42;;;;;;;9.75;6.03;;;10.80;99.90;;;;;;4963628;28;20105;-69
2023/10/28 09:30:11;;;;;;;11.00;6.00;;;11.10;99.90;;;;;;4964806;28;20043;-72
2023/10/28 09:32:38;;;;;;;12.65;6.25;;;10.90;99.90;;;;;;4966689;28;20082;-70
2023/10/28 09:35:08;;;;;;;12.32;6.28;;;10.90;99.90;;;;;;4960953;28;20170;-69
2023/10/28 09:37:39;;;;;;;11.43;5.63;;;11.00;99.90;;;;;;4962381;28;20098;-71
2023/10/28 09:40:07;;;;;;;9.95;5.70;;;11.00;99.90;;;;;;4960855;28;20543;-70
2023/10/28 09:42:34;;;;;;;11.07;5.85;;;11.00;99.90;;;;;;4960745;28;20530;-70
2023/10/28 09:45:01;;;;;;;12.88;5.82;;;11.00;99.90;;;;;;4946158;28;20136;-70
2023/10/28 09:47:49;;;;;;;15.13;6.22;;;11.10;99.90;;;;;;4959605;28;20043;-71
2023/10/28 09:50:16;;;;;;;11.50;5.10;;;11.10;99.90;;;;;;4953245;28;20581;-68
2023/10/28 09:52:44;;;;;;;12.65;6.40;;;11.20;99.90;;;;;;4940378;28;20446;-72
2023/10/28 09:55:13;;;;;;;11.82;5.70;;;11.20;99.90;;;;;;4961163;28;20404;-72
2023/10/28 09:57:40;;;;;;;15.43;5.70;;;11.20;99.90;;;;;;4960821;28;20047;-67
2023/10/28 10:00:17;;;;;;;12.02;5.63;;;11.20;99.90;;;;;;4961697;28;20403;-72
2023/10/28 10:03:06;;;;;;;14.18;6.22;;;11.20;99.90;;;;;;4963464;28;20039;-72
2023/10/28 10:05:42;;;;;;;10.30;6.03;;;11.30;99.90;;;;;;4953548;28;20043;-73
2023/10/28 10:08:23;;;;;;;10.07;5.30;;;11.30;99.90;;;;;;4960460;28;20053;-72
2023/10/28 10:10:51;;;;;;;12.55;5.45;;;11.20;99.90;;;;;;4963147;28;20046;-70
2023/10/28 10:13:17;;;;;;;9.32;4.95;;;11.30;99.90;;;;;;4962442;28;20057;-71
2023/10/28 10:16:03;;;;;;;9.38;5.22;;;11.30;99.90;;;;;;4942845;29;20047;-73
2023/10/28 10:18:32;;;;;;;11.63;4.25;;;11.30;99.90;;;;;;4962057;28;20101;-71
2023/10/28 10:21:04;;;;;;;10.05;4.93;;;11.30;99.90;;;;;;4962638;28;20106;-70
2023/10/28 10:23:43;;;;;;;11.95;4.38;;;11.30;99.90;;;;;;4960895;28;20120;-72
2023/10/28 10:26:30;;;;;;;12.07;4.90;;;11.30;99.90;;;;;;4960001;28;20051;-70
2023/10/28 10:29:00;;;;;;;14.23;4.75;;;11.40;99.90;;;;;;4953587;28;20058;-71
2023/10/28 10:31:36;;;;;;;9.32;3.75;;;11.40;99.90;;;;;;4943038;29;20110;-70
2023/10/28 10:34:07;;;;;;;10.02;4.30;;;11.40;99.90;;;;;;4949304;28;20050;-70
2023/10/28 10:36:40;;;;;;;13.23;4.60;;;11.40;99.90;;;;;;4962578;28;20078;-69
2023/10/28 10:39:17;;;;;;;11.95;4.40;;;11.60;99.90;;;;;;4956080;28;20611;-69
2023/10/28 10:41:54;;;;;;;14.75;4.15;;;11.40;99.90;;;;;;4957471;28;20482;-72
2023/10/28 10:44:36;;;;;;;11.15;4.20;;;11.40;99.90;;;;;;4964679;28;20039;-70
2023/10/28 10:47:02;;;;;;;12.80;4.38;;;11.40;99.90;;;;;;4962391;28;20093;-70
2023/10/28 10:49:31;;;;;;;9.80;4.15;;;11.50;99.90;;;;;;4961017;28;20061;-69
2023/10/28 10:52:03;;;;;;;9.82;4.15;;;11.50;99.90;;;;;;4963124;28;20042;-74
2023/10/28 10:54:40;;;;;;;13.68;4.57;;;11.50;99.90;;;;;;4959686;28;20042;-71
2023/10/28 10:57:07;;;;;;;8.85;4.13;;;11.50;99.90;;;;;;4956511;28;20399;-69
2023/10/28 10:59:34;;;;;;;12.35;4.07;;;11.50;99.90;;;;;;4960124;28;20107;-69
2023/10/28 11:02:00;;;;;;;8.48;4.18;;;11.50;99.90;;;;;;4959885;28;20387;-72
2023/10/28 11:04:28;;;;;;;8.02;4.22;;;11.50;99.90;;;;;;4961229;28;20043;-70
2023/10/28 11:06:54;;;;;;;8.63;3.90;;;11.70;99.90;;;;;;4954028;28;20047;-70
2023/10/28 11:09:20;;;;;;;14.93;4.28;;;11.70;99.90;;;;;;4961250;28;20595;-71
2023/10/28 11:11:45;;;;;;;11.77;4.18;;;11.70;99.90;;;;;;4962403;28;20055;-70
2023/10/28 11:14:12;;;;;;;10.77;4.57;;;11.90;99.90;;;;;;4944983;28;20136;-72
2023/10/28 11:16:41;;;;;;;15.95;4.93;;;11.80;99.90;;;;;;4959533;28;20098;-70
2023/10/28 11:19:08;;;;;;;10.60;4.20;;;11.90;99.90;;;;;;4958642;28;20047;-70
2023/10/28 11:21:35;;;;;;;10.80;4.15;;;11.80;99.90;;;;;;4942120;28;20063;-70
2023/10/28 11:24:01;;;;;;;8.80;4.07;;;11.80;99.90;;;;;;4959331;28;20035;-70
2023/10/28 11:26:27;;;;;;;12.90;4.35;;;11.90;99.90;;;;;;4960023;28;20077;-69
2023/10/28 11:28:58;;;;;;;10.23;4.15;;;11.90;99.90;;;;;;4945175;28;20499;-69
2023/10/28 11:31:24;;;;;;;9.48;4.30;;;11.90;99.90;;;;;;4960850;28;20053;-69
2023/10/28 11:33:52;;;;;;;10.27;3.92;;;12.00;99.90;;;;;;4965965;28;20478;-70
2023/10/28 11:36:18;;;;;;;14.25;3.90;;;12.00;99.90;;;;;;4966131;28;20046;-70
2023/10/28 11:38:44;;;;;;;12.88;3.90;;;12.00;99.90;;;;;;4958080;28;20863;-70
2023/10/28 11:41:11;;;;;;;14.07;3.55;;;12.00;99.90;;;;;;4969179;28;20469;-72
2023/10/28 11:43:37;;;;;;;8.52;2.80;;;12.00;99.90;;;;;;4963487;28;20055;-70
2023/10/28 11:46:03;;;;;;;7.20;2.85;;;12.00;99.90;;;;;;4965700;28;20038;-70
2023/10/28 11:48:29;;;;;;;10.27;3.28;;;12.00;99.90;;;;;;4965866;28;20043;-73
2023/10/28 11:50:56;;;;;;;7.47;3.22;;;12.00;99.90;;;;;;4947206;28;20536;-69
2023/10/28 11:53:25;;;;;;;9.20;3.45;;;12.00;99.90;;;;;;4962768;28;20486;-72
2023/10/28 11:55:54;;;;;;;7.47;3.10;;;12.00;99.90;;;;;;4962164;28;20368;-70
2023/10/28 11:58:22;;;;;;;11.20;3.17;;;12.00;99.90;;;;;;4945129;29;20384;-70
2023/10/28 12:00:53;;;;;;;11.35;3.30;;;12.00;99.90;;;;;;4962907;28;20066;-69
2023/10/28 12:03:19;;;;;;;14.52;3.55;;;12.00;99.90;;;;;;4948227;28;20142;-72
2023/10/28 12:05:45;;;;;;;9.20;2.55;;;12.10;99.90;;;;;;4965751;28;20093;-71
2023/10/28 12:08:11;;;;;;;9.75;2.67;;;12.10;99.90;;;;;;4963374;28;20479;-69
2023/10/28 12:10:45;;;;;;;8.57;3.10;;;12.10;99.90;;;;;;4949326;29;20150;-69
2023/10/28 12:13:11;;;;;;;11.60;2.85;;;12.10;99.90;;;;;;4945245;28;20058;-70
2023/10/28 12:15:37;;;;;;;10.38;2.65;;;12.20;99.90;;;;;;4965643;28;20078;-69
2023/10/28 12:18:02;;;;;;;10.80;2.97;;;12.20;99.90;;;;;;4948244;28;20081;-69
2023/10/28 12:20:28;;;;;;;9.27;2.65;;;12.20;99.90;;;;;;4963193;28;20058;-70
2023/10/28 12:22:54;;;;;;;8.57;2.95;;;12.20;99.90;;;;;;4961874;28;20051;-70
2023/10/28 12:25:19;;;;;;;7.85;2.95;;;12.20;99.90;;;;;;4962069;28;20072;-71
2023/10/28 12:27:49;;;;;;;8.70;2.78;;;12.20;99.90;;;;;;4954078;28;20110;-69
2023/10/28 12:30:15;;;;;;;12.52;3.22;;;12.20;99.90;;;;;;4962357;28;20062;-70
2023/10/28 12:32:41;;;;;;;7.35;2.70;;;12.10;99.90;;;;;;4946562;28;20459;-71
2023/10/28 12:35:07;;;;;;;7.28;2.78;;;12.20;99.90;;;;;;4964267;28;20043;-69